sensor_id;sensor_type;location;lat;lon;timestamp;pressure;altitude;pressure_sealevel;temperature;humidity
52935;BME280;38802;50.198;19.796;2022-10-16T00:01:41;96386.84;;;11.71;72.50
52935;BME280;38802;50.198;19.796;2022-10-16T00:04:09;96381.37;;;11.67;72.41
52935;BME280;38802;50.198;19.796;2022-10-16T00:06:38;96389.83;;;11.70;72.50
52935;BME280;38802;50.198;19.796;2022-10-16T00:09:07;96391.23;;;11.70;72.42
52935;BME280;38802;50.198;19.796;2022-10-16T00:11:36;96392.14;;;11.70;72.60
52935;BME280;38802;50.198;19.796;2022-10-16T00:14:08;96391.44;;;11.70;72.82
52935;BME280;38802;50.198;19.796;2022-10-16T00:16:38;96394.80;;;11.69;72.90
52935;BME280;38802;50.198;19.796;2022-10-16T00:19:06;96400.20;;;11.69;73.16
52935;BME280;38802;50.198;19.796;2022-10-16T00:21:34;96404.40;;;11.69;73.19
52935;BME280;38802;50.198;19.796;2022-10-16T00:24:05;96405.44;;;11.69;73.24
52935;BME280;38802;50.198;19.796;2022-10-16T00:26:35;96408.58;;;11.69;73.32
52935;BME280;38802;50.198;19.796;2022-10-16T00:29:04;96414.21;;;11.70;73.46
52935;BME280;38802;50.198;19.796;2022-10-16T00:31:33;96411.95;;;11.70;73.74
52935;BME280;38802;50.198;19.796;2022-10-16T00:34:01;96409.66;;;11.70;73.71
52935;BME280;38802;50.198;19.796;2022-10-16T00:36:29;96410.71;;;11.70;73.60
52935;BME280;38802;50.198;19.796;2022-10-16T00:39:01;96415.30;;;11.72;73.84
52935;BME280;38802;50.198;19.796;2022-10-16T00:41:31;96414.96;;;11.72;73.56
52935;BME280;38802;50.198;19.796;2022-10-16T00:44:02;96414.73;;;11.72;73.81
52935;BME280;38802;50.198;19.796;2022-10-16T00:46:37;96415.52;;;11.74;73.80
52935;BME280;38802;50.198;19.796;2022-10-16T00:49:09;96413.55;;;11.74;73.76
52935;BME280;38802;50.198;19.796;2022-10-16T00:51:50;96411.30;;;11.74;73.94
52935;BME280;38802;50.198;19.796;2022-10-16T00:54:23;96416.30;;;11.74;73.92
52935;BME280;38802;50.198;19.796;2022-10-16T00:56:54;96414.90;;;11.75;74.14
52935;BME280;38802;50.198;19.796;2022-10-16T00:59:35;96416.05;;;11.75;74.11
52935;BME280;38802;50.198;19.796;2022-10-16T01:02:07;96419.85;;;11.76;74.05
52935;BME280;38802;50.198;19.796;2022-10-16T01:04:39;96420.98;;;11.77;74.09
52935;BME280;38802;50.198;19.796;2022-10-16T01:10:02;96422.10;;;11.78;74.11
52935;BME280;38802;50.198;19.796;2022-10-16T01:12:50;96425.32;;;11.79;74.19
52935;BME280;38802;50.198;19.796;2022-10-16T01:15:47;96424.05;;;11.80;74.24
52935;BME280;38802;50.198;19.796;2022-10-16T01:18:20;96427.21;;;11.79;74.22
52935;BME280;38802;50.198;19.796;2022-10-16T01:20:54;96428.67;;;11.79;74.38
52935;BME280;38802;50.198;19.796;2022-10-16T01:25:59;96425.98;;;11.80;74.17
52935;BME280;38802;50.198;19.796;2022-10-16T01:28:49;96425.10;;;11.80;74.25
52935;BME280;38802;50.198;19.796;2022-10-16T01:31:24;96428.31;;;11.79;74.31
52935;BME280;38802;50.198;19.796;2022-10-16T01:34:03;96427.23;;;11.79;74.46
52935;BME280;38802;50.198;19.796;2022-10-16T01:36:57;96426.13;;;11.80;74.44
52935;BME280;38802;50.198;19.796;2022-10-16T01:39:31;96431.27;;;11.81;74.55
52935;BME280;38802;50.198;19.796;2022-10-16T01:42:07;96426.13;;;11.82;74.45
52935;BME280;38802;50.198;19.796;2022-10-16T01:44:37;96421.69;;;11.83;74.37
52935;BME280;38802;50.198;19.796;2022-10-16T01:47:09;96423.06;;;11.83;74.62
52935;BME280;38802;50.198;19.796;2022-10-16T01:49:40;96424.23;;;11.84;74.39
52935;BME280;38802;50.198;19.796;2022-10-16T01:52:13;96424.89;;;11.84;74.76
52935;BME280;38802;50.198;19.796;2022-10-16T01:54:46;96427.87;;;11.84;74.55
52935;BME280;38802;50.198;19.796;2022-10-16T01:57:16;96426.63;;;11.84;74.69
52935;BME280;38802;50.198;19.796;2022-10-16T01:59:50;96428.17;;;11.84;74.60
52935;BME280;38802;50.198;19.796;2022-10-16T02:02:22;96430.46;;;11.84;74.72
52935;BME280;38802;50.198;19.796;2022-10-16T02:05:08;96429.86;;;11.85;74.72
52935;BME280;38802;50.198;19.796;2022-10-16T02:07:38;96427.72;;;11.86;74.92
52935;BME280;38802;50.198;19.796;2022-10-16T02:10:09;96426.57;;;11.87;74.91
52935;BME280;38802;50.198;19.796;2022-10-16T02:12:41;96424.86;;;11.87;74.77
52935;BME280;38802;50.198;19.796;2022-10-16T02:15:11;96422.30;;;11.86;74.85
52935;BME280;38802;50.198;19.796;2022-10-16T02:17:40;96423.67;;;11.84;74.79
52935;BME280;38802;50.198;19.796;2022-10-16T02:20:10;96430.54;;;11.83;74.82
52935;BME280;38802;50.198;19.796;2022-10-16T02:22:41;96431.05;;;11.82;74.91
52935;BME280;38802;50.198;19.796;2022-10-16T02:25:37;96433.67;;;11.79;74.73
52935;BME280;38802;50.198;19.796;2022-10-16T02:28:08;96436.00;;;11.76;74.69
52935;BME280;38802;50.198;19.796;2022-10-16T02:30:43;96438.40;;;11.75;74.96
52935;BME280;38802;50.198;19.796;2022-10-16T02:33:13;96431.13;;;11.72;75.06
52935;BME280;38802;50.198;19.796;2022-10-16T02:35:44;96434.88;;;11.71;74.83
52935;BME280;38802;50.198;19.796;2022-10-16T02:38:15;96437.96;;;11.69;74.79
52935;BME280;38802;50.198;19.796;2022-10-16T02:40:44;96440.91;;;11.67;75.03
52935;BME280;38802;50.198;19.796;2022-10-16T02:43:12;96442.63;;;11.65;74.99
52935;BME280;38802;50.198;19.796;2022-10-16T02:45:41;96438.94;;;11.63;75.07
52935;BME280;38802;50.198;19.796;2022-10-16T02:48:09;96440.00;;;11.61;74.97
52935;BME280;38802;50.198;19.796;2022-10-16T02:50:37;96441.73;;;11.59;75.06
52935;BME280;38802;50.198;19.796;2022-10-16T02:53:05;96441.02;;;11.57;75.19
52935;BME280;38802;50.198;19.796;2022-10-16T02:55:33;96439.52;;;11.55;74.96
52935;BME280;38802;50.198;19.796;2022-10-16T02:58:01;96442.11;;;11.53;74.98
52935;BME280;38802;50.198;19.796;2022-10-16T03:00:29;96443.08;;;11.49;75.02
52935;BME280;38802;50.198;19.796;2022-10-16T03:02:57;96445.96;;;11.46;75.12
52935;BME280;38802;50.198;19.796;2022-10-16T03:05:25;96445.73;;;11.43;75.30
52935;BME280;38802;50.198;19.796;2022-10-16T03:07:53;96445.34;;;11.39;75.07
52935;BME280;38802;50.198;19.796;2022-10-16T03:10:21;96439.64;;;11.34;75.34
52935;BME280;38802;50.198;19.796;2022-10-16T03:12:49;96441.90;;;11.30;75.31
52935;BME280;38802;50.198;19.796;2022-10-16T03:15:20;96435.30;;;11.25;75.39
52935;BME280;38802;50.198;19.796;2022-10-16T03:17:48;96441.00;;;11.22;75.43
52935;BME280;38802;50.198;19.796;2022-10-16T03:20:16;96442.23;;;11.17;75.36
52935;BME280;38802;50.198;19.796;2022-10-16T03:22:44;96448.67;;;11.13;75.53
52935;BME280;38802;50.198;19.796;2022-10-16T03:25:12;96456.75;;;11.10;75.57
52935;BME280;38802;50.198;19.796;2022-10-16T03:27:40;96454.48;;;11.06;75.45
52935;BME280;38802;50.198;19.796;2022-10-16T03:30:09;96460.63;;;11.01;75.44
52935;BME280;38802;50.198;19.796;2022-10-16T03:32:37;96469.45;;;10.97;75.61
52935;BME280;38802;50.198;19.796;2022-10-16T03:35:05;96470.19;;;10.92;75.68
52935;BME280;38802;50.198;19.796;2022-10-16T03:37:33;96474.55;;;10.90;75.66
52935;BME280;38802;50.198;19.796;2022-10-16T03:40:03;96473.58;;;10.86;75.62
52935;BME280;38802;50.198;19.796;2022-10-16T03:42:32;96478.02;;;10.83;75.41
52935;BME280;38802;50.198;19.796;2022-10-16T03:45:00;96483.76;;;10.81;75.69
52935;BME280;38802;50.198;19.796;2022-10-16T03:47:28;96484.27;;;10.79;75.69
52935;BME280;38802;50.198;19.796;2022-10-16T03:49:56;96486.25;;;10.78;75.81
52935;BME280;38802;50.198;19.796;2022-10-16T03:52:24;96493.44;;;10.77;75.75
52935;BME280;38802;50.198;19.796;2022-10-16T03:54:52;96496.83;;;10.76;75.61
52935;BME280;38802;50.198;19.796;2022-10-16T03:57:21;96496.77;;;10.74;75.90
52935;BME280;38802;50.198;19.796;2022-10-16T03:59:49;96494.89;;;10.72;75.61
52935;BME280;38802;50.198;19.796;2022-10-16T04:02:17;96495.46;;;10.69;75.92
52935;BME280;38802;50.198;19.796;2022-10-16T04:04:45;96491.98;;;10.67;75.80
52935;BME280;38802;50.198;19.796;2022-10-16T04:07:13;96495.95;;;10.65;75.75
52935;BME280;38802;50.198;19.796;2022-10-16T04:09:41;96496.23;;;10.61;75.97
52935;BME280;38802;50.198;19.796;2022-10-16T04:12:09;96498.86;;;10.59;76.01
52935;BME280;38802;50.198;19.796;2022-10-16T04:14:37;96500.41;;;10.57;76.06
52935;BME280;38802;50.198;19.796;2022-10-16T04:17:05;96497.77;;;10.55;76.00
52935;BME280;38802;50.198;19.796;2022-10-16T04:19:33;96498.52;;;10.52;76.09
52935;BME280;38802;50.198;19.796;2022-10-16T04:22:02;96500.04;;;10.51;76.08
52935;BME280;38802;50.198;19.796;2022-10-16T04:24:30;96502.09;;;10.49;76.27
52935;BME280;38802;50.198;19.796;2022-10-16T04:26:58;96504.85;;;10.47;76.32
52935;BME280;38802;50.198;19.796;2022-10-16T04:29:26;96505.67;;;10.45;76.50
52935;BME280;38802;50.198;19.796;2022-10-16T04:31:54;96506.27;;;10.45;76.61
52935;BME280;38802;50.198;19.796;2022-10-16T04:34:22;96506.91;;;10.45;76.65
52935;BME280;38802;50.198;19.796;2022-10-16T04:36:50;96504.56;;;10.46;76.61
52935;BME280;38802;50.198;19.796;2022-10-16T04:39:19;96503.89;;;10.48;77.02
52935;BME280;38802;50.198;19.796;2022-10-16T04:41:47;96506.08;;;10.49;76.99
52935;BME280;38802;50.198;19.796;2022-10-16T04:44:15;96511.85;;;10.51;77.06
52935;BME280;38802;50.198;19.796;2022-10-16T04:46:43;96510.40;;;10.51;76.91
52935;BME280;38802;50.198;19.796;2022-10-16T04:49:12;96511.01;;;10.53;77.08
52935;BME280;38802;50.198;19.796;2022-10-16T04:51:40;96508.82;;;10.54;77.26
52935;BME280;38802;50.198;19.796;2022-10-16T04:54:09;96510.40;;;10.56;77.34
52935;BME280;38802;50.198;19.796;2022-10-16T04:56:37;96516.25;;;10.57;77.29
52935;BME280;38802;50.198;19.796;2022-10-16T04:59:14;96521.38;;;10.58;77.32
52935;BME280;38802;50.198;19.796;2022-10-16T05:01:43;96520.92;;;10.59;77.26
52935;BME280;38802;50.198;19.796;2022-10-16T05:04:11;96521.59;;;10.59;77.19
52935;BME280;38802;50.198;19.796;2022-10-16T05:06:40;96519.81;;;10.60;77.39
52935;BME280;38802;50.198;19.796;2022-10-16T05:09:08;96521.37;;;10.62;77.40
52935;BME280;38802;50.198;19.796;2022-10-16T05:11:37;96514.14;;;10.63;77.57
52935;BME280;38802;50.198;19.796;2022-10-16T05:14:05;96516.81;;;10.65;77.47
52935;BME280;38802;50.198;19.796;2022-10-16T05:16:33;96520.42;;;10.67;78.11
52935;BME280;38802;50.198;19.796;2022-10-16T05:19:01;96523.48;;;10.68;78.08
52935;BME280;38802;50.198;19.796;2022-10-16T05:21:49;96526.84;;;10.70;77.85
52935;BME280;38802;50.198;19.796;2022-10-16T05:24:17;96527.08;;;10.71;78.01
52935;BME280;38802;50.198;19.796;2022-10-16T05:26:45;96529.98;;;10.74;77.89
52935;BME280;38802;50.198;19.796;2022-10-16T05:29:13;96525.95;;;10.77;77.97
52935;BME280;38802;50.198;19.796;2022-10-16T05:31:41;96521.41;;;10.79;78.14
52935;BME280;38802;50.198;19.796;2022-10-16T05:34:09;96515.46;;;10.82;78.22
52935;BME280;38802;50.198;19.796;2022-10-16T05:36:37;96508.52;;;10.87;78.20
52935;BME280;38802;50.198;19.796;2022-10-16T05:39:06;96509.89;;;10.91;78.16
52935;BME280;38802;50.198;19.796;2022-10-16T05:41:34;96512.36;;;10.97;78.49
52935;BME280;38802;50.198;19.796;2022-10-16T05:44:05;96516.78;;;11.03;78.50
52935;BME280;38802;50.198;19.796;2022-10-16T05:46:34;96520.27;;;11.07;78.19
52935;BME280;38802;50.198;19.796;2022-10-16T05:49:02;96525.30;;;11.09;78.19
52935;BME280;38802;50.198;19.796;2022-10-16T05:51:30;96527.95;;;11.11;78.20
52935;BME280;38802;50.198;19.796;2022-10-16T05:53:58;96532.27;;;11.11;78.20
52935;BME280;38802;50.198;19.796;2022-10-16T05:56:26;96535.16;;;11.10;78.15
52935;BME280;38802;50.198;19.796;2022-10-16T05:58:55;96535.90;;;11.09;78.25
52935;BME280;38802;50.198;19.796;2022-10-16T06:01:23;96536.75;;;11.10;78.48
52935;BME280;38802;50.198;19.796;2022-10-16T06:03:52;96545.02;;;11.11;78.44
52935;BME280;38802;50.198;19.796;2022-10-16T06:06:22;96546.94;;;11.10;78.48
52935;BME280;38802;50.198;19.796;2022-10-16T06:08:53;96552.20;;;11.12;78.59
52935;BME280;38802;50.198;19.796;2022-10-16T06:11:25;96557.18;;;11.13;78.58
52935;BME280;38802;50.198;19.796;2022-10-16T06:13:56;96559.48;;;11.15;78.58
52935;BME280;38802;50.198;19.796;2022-10-16T06:16:25;96561.77;;;11.16;79.00
52935;BME280;38802;50.198;19.796;2022-10-16T06:18:54;96564.67;;;11.19;78.79
52935;BME280;38802;50.198;19.796;2022-10-16T06:21:28;96566.05;;;11.21;78.97
52935;BME280;38802;50.198;19.796;2022-10-16T06:23:57;96572.61;;;11.24;78.87
52935;BME280;38802;50.198;19.796;2022-10-16T06:26:27;96579.13;;;11.28;78.77
52935;BME280;38802;50.198;19.796;2022-10-16T06:28:58;96581.19;;;11.33;78.90
52935;BME280;38802;50.198;19.796;2022-10-16T06:31:28;96588.91;;;11.38;78.92
52935;BME280;38802;50.198;19.796;2022-10-16T06:33:59;96593.58;;;11.45;79.21
52935;BME280;38802;50.198;19.796;2022-10-16T06:36:28;96594.23;;;11.52;79.04
52935;BME280;38802;50.198;19.796;2022-10-16T06:38:56;96600.31;;;11.61;79.17
52935;BME280;38802;50.198;19.796;2022-10-16T06:41:24;96605.75;;;11.69;79.22
52935;BME280;38802;50.198;19.796;2022-10-16T06:44:09;96608.75;;;11.77;79.12
52935;BME280;38802;50.198;19.796;2022-10-16T06:46:38;96613.44;;;11.84;79.04
52935;BME280;38802;50.198;19.796;2022-10-16T06:49:06;96614.50;;;11.90;79.01
52935;BME280;38802;50.198;19.796;2022-10-16T06:51:34;96619.34;;;11.97;78.98
52935;BME280;38802;50.198;19.796;2022-10-16T06:54:08;96627.38;;;12.03;78.83
52935;BME280;38802;50.198;19.796;2022-10-16T06:56:37;96625.69;;;12.09;78.72
52935;BME280;38802;50.198;19.796;2022-10-16T06:59:05;96624.52;;;12.15;78.63
52935;BME280;38802;50.198;19.796;2022-10-16T07:01:33;96627.48;;;12.21;78.62
52935;BME280;38802;50.198;19.796;2022-10-16T07:04:01;96626.27;;;12.29;78.62
52935;BME280;38802;50.198;19.796;2022-10-16T07:06:33;96626.64;;;12.37;78.55
52935;BME280;38802;50.198;19.796;2022-10-16T07:09:05;96625.92;;;12.46;78.51
52935;BME280;38802;50.198;19.796;2022-10-16T07:11:34;96628.38;;;12.56;78.38
52935;BME280;38802;50.198;19.796;2022-10-16T07:14:04;96627.86;;;12.69;78.26
52935;BME280;38802;50.198;19.796;2022-10-16T07:16:32;96630.11;;;12.81;78.38
52935;BME280;38802;50.198;19.796;2022-10-16T07:19:02;96631.09;;;12.94;78.04
52935;BME280;38802;50.198;19.796;2022-10-16T07:21:33;96635.07;;;13.05;78.05
52935;BME280;38802;50.198;19.796;2022-10-16T07:24:06;96639.91;;;13.11;77.19
52935;BME280;38802;50.198;19.796;2022-10-16T07:26:36;96636.55;;;13.16;77.36
52935;BME280;38802;50.198;19.796;2022-10-16T07:29:16;96636.53;;;13.20;77.15
52935;BME280;38802;50.198;19.796;2022-10-16T07:31:45;96635.98;;;13.29;76.96
52935;BME280;38802;50.198;19.796;2022-10-16T07:34:15;96643.39;;;13.38;77.10
52935;BME280;38802;50.198;19.796;2022-10-16T07:36:48;96645.67;;;13.48;77.18
52935;BME280;38802;50.198;19.796;2022-10-16T07:39:17;96644.59;;;13.54;77.29
52935;BME280;38802;50.198;19.796;2022-10-16T07:41:45;96645.27;;;13.58;76.92
52935;BME280;38802;50.198;19.796;2022-10-16T07:44:13;96643.05;;;13.64;76.86
52935;BME280;38802;50.198;19.796;2022-10-16T07:46:43;96645.58;;;13.67;76.79
52935;BME280;38802;50.198;19.796;2022-10-16T07:49:11;96640.31;;;13.73;76.96
52935;BME280;38802;50.198;19.796;2022-10-16T07:51:39;96642.71;;;13.81;76.20
52935;BME280;38802;50.198;19.796;2022-10-16T07:54:11;96645.48;;;13.94;76.17
52935;BME280;38802;50.198;19.796;2022-10-16T07:56:39;96644.77;;;14.07;75.81
52935;BME280;38802;50.198;19.796;2022-10-16T07:59:11;96649.11;;;14.21;75.64
52935;BME280;38802;50.198;19.796;2022-10-16T08:01:39;96649.69;;;14.30;75.22
52935;BME280;38802;50.198;19.796;2022-10-16T08:04:08;96649.31;;;14.34;75.36
52935;BME280;38802;50.198;19.796;2022-10-16T08:06:38;96653.77;;;14.37;75.13
52935;BME280;38802;50.198;19.796;2022-10-16T08:09:07;96653.36;;;14.44;74.67
52935;BME280;38802;50.198;19.796;2022-10-16T08:11:36;96658.73;;;14.54;74.95
52935;BME280;38802;50.198;19.796;2022-10-16T08:14:04;96664.03;;;14.65;75.03
52935;BME280;38802;50.198;19.796;2022-10-16T08:16:32;96661.84;;;14.71;74.03
52935;BME280;38802;50.198;19.796;2022-10-16T08:19:01;96665.80;;;14.78;74.05
52935;BME280;38802;50.198;19.796;2022-10-16T08:21:29;96664.92;;;14.86;74.46
52935;BME280;38802;50.198;19.796;2022-10-16T08:23:57;96666.55;;;14.96;74.57
52935;BME280;38802;50.198;19.796;2022-10-16T08:26:27;96666.56;;;15.01;74.42
52935;BME280;38802;50.198;19.796;2022-10-16T08:28:55;96667.48;;;15.05;73.87
52935;BME280;38802;50.198;19.796;2022-10-16T08:31:23;96669.34;;;15.07;73.78
52935;BME280;38802;50.198;19.796;2022-10-16T08:33:52;96669.44;;;15.08;73.39
52935;BME280;38802;50.198;19.796;2022-10-16T08:36:20;96669.14;;;15.08;73.47
52935;BME280;38802;50.198;19.796;2022-10-16T08:38:49;96669.91;;;15.08;73.48
52935;BME280;38802;50.198;19.796;2022-10-16T08:49:57;96680.00;;;15.13;72.93
52935;BME280;38802;50.198;19.796;2022-10-16T08:52:30;96679.17;;;15.28;72.41
52935;BME280;38802;50.198;19.796;2022-10-16T08:55:01;96679.35;;;15.48;72.03
52935;BME280;38802;50.198;19.796;2022-10-16T08:57:29;96686.33;;;15.63;71.46
52935;BME280;38802;50.198;19.796;2022-10-16T09:00:08;96688.17;;;15.75;71.41
52935;BME280;38802;50.198;19.796;2022-10-16T09:02:51;96685.14;;;15.83;71.91
52935;BME280;38802;50.198;19.796;2022-10-16T09:11:39;96691.86;;;15.82;71.61
52935;BME280;38802;50.198;19.796;2022-10-16T09:19:53;96689.96;;;16.02;71.33
52935;BME280;38802;50.198;19.796;2022-10-16T09:22:27;96692.42;;;16.06;71.00
52935;BME280;38802;50.198;19.796;2022-10-16T09:25:20;96693.38;;;16.09;71.05
52935;BME280;38802;50.198;19.796;2022-10-16T09:27:52;96693.30;;;16.11;70.51
52935;BME280;38802;50.198;19.796;2022-10-16T09:30:22;96698.29;;;16.14;70.62
52935;BME280;38802;50.198;19.796;2022-10-16T09:32:52;96698.37;;;16.15;70.39
52935;BME280;38802;50.198;19.796;2022-10-16T09:35:35;96701.91;;;16.18;70.57
52935;BME280;38802;50.198;19.796;2022-10-16T09:38:04;96701.64;;;16.21;70.61
52935;BME280;38802;50.198;19.796;2022-10-16T09:40:37;96701.28;;;16.24;70.74
52935;BME280;38802;50.198;19.796;2022-10-16T09:45:41;96704.59;;;16.33;70.39
52935;BME280;38802;50.198;19.796;2022-10-16T09:48:12;96705.62;;;16.35;69.76
52935;BME280;38802;50.198;19.796;2022-10-16T09:50:41;96706.98;;;16.36;69.98
52935;BME280;38802;50.198;19.796;2022-10-16T09:53:13;96707.99;;;16.36;69.67
52935;BME280;38802;50.198;19.796;2022-10-16T09:55:52;96709.09;;;16.38;69.79
52935;BME280;38802;50.198;19.796;2022-10-16T09:58:22;96705.62;;;16.39;69.80
52935;BME280;38802;50.198;19.796;2022-10-16T10:00:54;96706.91;;;16.40;69.40
52935;BME280;38802;50.198;19.796;2022-10-16T10:03:37;96706.69;;;16.41;69.20
52935;BME280;38802;50.198;19.796;2022-10-16T10:11:43;96711.45;;;16.44;69.08
52935;BME280;38802;50.198;19.796;2022-10-16T10:16:43;96713.56;;;16.47;68.24
52935;BME280;38802;50.198;19.796;2022-10-16T10:19:20;96718.83;;;16.53;68.54
52935;BME280;38802;50.198;19.796;2022-10-16T10:21:50;96717.05;;;16.60;68.28
52935;BME280;38802;50.198;19.796;2022-10-16T10:24:19;96715.88;;;16.67;68.87
52935;BME280;38802;50.198;19.796;2022-10-16T10:27:02;96716.55;;;16.73;68.72
52935;BME280;38802;50.198;19.796;2022-10-16T10:32:41;96715.21;;;16.79;68.15
52935;BME280;38802;50.198;19.796;2022-10-16T10:35:18;96715.88;;;16.79;68.11
52935;BME280;38802;50.198;19.796;2022-10-16T10:46:14;96705.47;;;16.83;68.26
52935;BME280;38802;50.198;19.796;2022-10-16T10:54:33;96707.30;;;16.89;68.05
52935;BME280;38802;50.198;19.796;2022-10-16T10:57:33;96705.62;;;16.90;67.82
52935;BME280;38802;50.198;19.796;2022-10-16T11:05:56;96697.69;;;16.94;67.81
52935;BME280;38802;50.198;19.796;2022-10-16T11:08:32;96702.20;;;16.95;68.06
52935;BME280;38802;50.198;19.796;2022-10-16T11:11:06;96701.73;;;16.94;67.70
52935;BME280;38802;50.198;19.796;2022-10-16T11:16:38;96706.61;;;16.94;67.74
52935;BME280;38802;50.198;19.796;2022-10-16T11:19:46;96706.15;;;16.96;67.75
52935;BME280;38802;50.198;19.796;2022-10-16T11:22:36;96705.59;;;17.00;67.48
52935;BME280;38802;50.198;19.796;2022-10-16T11:30:47;96707.86;;;17.17;67.89
52935;BME280;38802;50.198;19.796;2022-10-16T11:38:58;96707.79;;;17.30;67.45
52935;BME280;38802;50.198;19.796;2022-10-16T11:41:34;96707.80;;;17.31;67.86
52935;BME280;38802;50.198;19.796;2022-10-16T11:44:14;96711.50;;;17.35;67.91
52935;BME280;38802;50.198;19.796;2022-10-16T11:46:51;96706.66;;;17.38;67.79
52935;BME280;38802;50.198;19.796;2022-10-16T11:49:44;96706.73;;;17.39;68.07
52935;BME280;38802;50.198;19.796;2022-10-16T11:52:23;96702.68;;;17.40;67.95
52935;BME280;38802;50.198;19.796;2022-10-16T11:55:04;96699.89;;;17.42;68.27
52935;BME280;38802;50.198;19.796;2022-10-16T11:57:41;96698.38;;;17.43;67.95
52935;BME280;38802;50.198;19.796;2022-10-16T12:00:28;96700.81;;;17.43;68.04
52935;BME280;38802;50.198;19.796;2022-10-16T12:08:20;96715.20;;;17.48;67.77
52935;BME280;38802;50.198;19.796;2022-10-16T12:10:49;96712.54;;;17.50;67.76
52935;BME280;38802;50.198;19.796;2022-10-16T12:13:33;96709.57;;;17.50;67.45
52935;BME280;38802;50.198;19.796;2022-10-16T12:18:42;96706.63;;;17.53;67.34
52935;BME280;38802;50.198;19.796;2022-10-16T12:21:12;96703.37;;;17.54;67.53
52935;BME280;38802;50.198;19.796;2022-10-16T12:23:47;96704.98;;;17.55;67.39
52935;BME280;38802;50.198;19.796;2022-10-16T12:26:28;96706.35;;;17.59;67.20
52935;BME280;38802;50.198;19.796;2022-10-16T12:29:13;96704.39;;;17.63;66.90
52935;BME280;38802;50.198;19.796;2022-10-16T12:31:47;96707.35;;;17.67;67.30
52935;BME280;38802;50.198;19.796;2022-10-16T12:34:32;96708.20;;;17.69;67.46
52935;BME280;38802;50.198;19.796;2022-10-16T12:37:20;96710.84;;;17.70;67.23
52935;BME280;38802;50.198;19.796;2022-10-16T12:39:50;96713.24;;;17.71;66.93
52935;BME280;38802;50.198;19.796;2022-10-16T12:44:54;96714.73;;;17.74;66.99
52935;BME280;38802;50.198;19.796;2022-10-16T12:47:47;96714.38;;;17.73;66.54
52935;BME280;38802;50.198;19.796;2022-10-16T12:50:33;96717.94;;;17.73;66.58
52935;BME280;38802;50.198;19.796;2022-10-16T12:53:20;96720.20;;;17.73;66.90
52935;BME280;38802;50.198;19.796;2022-10-16T12:56:13;96720.02;;;17.75;66.68
52935;BME280;38802;50.198;19.796;2022-10-16T13:20:35;96732.05;;;17.76;65.63
52935;BME280;38802;50.198;19.796;2022-10-16T13:23:15;96731.35;;;17.78;65.23
52935;BME280;38802;50.198;19.796;2022-10-16T13:26:21;96729.52;;;17.78;64.94
52935;BME280;38802;50.198;19.796;2022-10-16T13:28:53;96732.79;;;17.77;65.04
52935;BME280;38802;50.198;19.796;2022-10-16T13:31:23;96734.59;;;17.75;64.97
52935;BME280;38802;50.198;19.796;2022-10-16T13:33:55;96735.67;;;17.75;65.52
52935;BME280;38802;50.198;19.796;2022-10-16T13:36:35;96737.09;;;17.76;65.62
52935;BME280;38802;50.198;19.796;2022-10-16T13:39:23;96731.98;;;17.78;65.75
52935;BME280;38802;50.198;19.796;2022-10-16T13:42:09;96736.65;;;17.83;65.79
52935;BME280;38802;50.198;19.796;2022-10-16T13:44:48;96743.65;;;17.86;65.78
52935;BME280;38802;50.198;19.796;2022-10-16T13:47:20;96752.66;;;17.89;65.39
52935;BME280;38802;50.198;19.796;2022-10-16T13:50:21;96758.89;;;17.92;65.07
52935;BME280;38802;50.198;19.796;2022-10-16T13:52:49;96758.20;;;17.88;65.18
52935;BME280;38802;50.198;19.796;2022-10-16T13:55:18;96754.14;;;17.81;65.02
52935;BME280;38802;50.198;19.796;2022-10-16T13:57:47;96759.77;;;17.75;65.28
52935;BME280;38802;50.198;19.796;2022-10-16T14:03:13;96764.36;;;17.59;65.24
52935;BME280;38802;50.198;19.796;2022-10-16T14:05:49;96763.83;;;17.50;65.50
52935;BME280;38802;50.198;19.796;2022-10-16T14:08:18;96765.70;;;17.44;65.53
52935;BME280;38802;50.198;19.796;2022-10-16T14:10:49;96761.55;;;17.38;65.56
52935;BME280;38802;50.198;19.796;2022-10-16T14:13:26;96761.96;;;17.32;65.68
52935;BME280;38802;50.198;19.796;2022-10-16T14:15:56;96762.81;;;17.27;65.83
52935;BME280;38802;50.198;19.796;2022-10-16T14:18:27;96762.48;;;17.24;66.08
52935;BME280;38802;50.198;19.796;2022-10-16T14:21:03;96759.83;;;17.20;66.01
52935;BME280;38802;50.198;19.796;2022-10-16T14:23:35;96755.12;;;17.15;66.14
52935;BME280;38802;50.198;19.796;2022-10-16T14:28:39;96750.58;;;17.10;66.26
52935;BME280;38802;50.198;19.796;2022-10-16T14:31:30;96747.10;;;17.07;66.18
52935;BME280;38802;50.198;19.796;2022-10-16T14:33:59;96746.90;;;17.06;66.13
52935;BME280;38802;50.198;19.796;2022-10-16T14:36:28;96742.77;;;17.04;66.15
52935;BME280;38802;50.198;19.796;2022-10-16T14:39:06;96741.77;;;17.03;66.15
52935;BME280;38802;50.198;19.796;2022-10-16T14:41:46;96738.90;;;17.02;66.02
52935;BME280;38802;50.198;19.796;2022-10-16T14:44:18;96737.71;;;17.01;66.02
52935;BME280;38802;50.198;19.796;2022-10-16T14:46:46;96745.11;;;17.03;66.21
52935;BME280;38802;50.198;19.796;2022-10-16T14:49:18;96752.00;;;17.02;66.16
52935;BME280;38802;50.198;19.796;2022-10-16T14:51:48;96755.16;;;17.02;66.32
52935;BME280;38802;50.198;19.796;2022-10-16T14:54:17;96752.86;;;17.03;66.11
52935;BME280;38802;50.198;19.796;2022-10-16T14:56:55;96756.86;;;17.01;65.98
52935;BME280;38802;50.198;19.796;2022-10-16T14:59:32;96762.48;;;17.00;66.03
52935;BME280;38802;50.198;19.796;2022-10-16T15:02:32;96772.48;;;16.98;66.23
52935;BME280;38802;50.198;19.796;2022-10-16T15:05:14;96782.58;;;16.97;66.31
52935;BME280;38802;50.198;19.796;2022-10-16T15:07:43;96791.91;;;16.96;66.20
52935;BME280;38802;50.198;19.796;2022-10-16T15:10:16;96789.31;;;16.92;66.29